Aérodrome :
LOGIN :

S'inscrire | Disclaimer

   EN    FR    IT 

 










Légende :    VFR   VFR Marginal   IFR   IFR Intensif   IFR Très Intensif
Visi : 
Plafond : 
>= 8 km
>= 3000ft
5 à 8 km
1000 à 3000 ft
1500m à 5 km
500 à 1000 ft
800 à 1500m
200 à 500 ft
< 800m
< 200 ft
Symboles :   Orages  Brouillard  Fortes neiges  Fortes précipitations  Vent > 20 kt
SIGMETs :   Divers  Orages  Givrage  Turbulence  Onde Orograph.  Cendres Volcan.







- Altitude de l'aérodrome : 13 ft
- Code IATA : OST


EBOS - Oostend bruges Int.

DERNIER METAR :
  • 170950Z 16010KT CAVOK 09/03 Q1019 NOSIG

METARs EXPIRÉS :
  • 170920Z 16011KT CAVOK 07/03 Q1019 NOSIG
  • 170850Z 16009KT CAVOK 06/03 Q1019 NOSIG
  • 170820Z 15006KT CAVOK 05/02 Q1019 NOSIG
  • 170750Z 17008KT CAVOK 03/01 Q1019 NOSIG
  • 170720Z 16007KT CAVOK 03/00 Q1019 NOSIG

TAF TAF EBOS
Valide du 17 à 06h jusqu'au 18 à 12h UTC


170510Z 1706/1812 17011KT CAVOK
Pas de NOTAMs connus pour ce terrain.



MET'MAP, la Météo Aéronautique d'un coup d'oeil ! - Copyright ORBIFLY Décembre 2007 - Disclaimer

ORBIFLY MET'MAP TEAM :

Programmation & Développement : Alexandra Zaïnal
Conception & Développement : Baudouin d'Aumeries
Co-Programmation & Développement : Marc-Olivier Méhu
Soutien technique & logistique : Manuel Goepfert

Contact : metmap@orbifly.com




SOURCES & CREDITS :

   NOAA